This is the latest recevied weather packets stored in our database for station/object SQ8AQX-13. If no packets are shown the sender has not sent any weather packets the latest 10 day(s).
| Time | Temp. | Humidity | Pressure | Rain* | Wind** | Luminosity | Snow |
|---|---|---|---|---|---|---|---|
| 1777240302 | 2.78° C | 61% | 1026.3 hPa | - | - | - | - |
| 1777239702 | 3.33° C | 59% | 1026.2 hPa | - | - | - | - |
| 1777239102 | 3.89° C | 59% | 1026.1 hPa | - | - | - | - |
| 1777235501 | 5° C | 53% | 1026 hPa | - | - | - | - |
| 1777234901 | 5° C | 53% | 1025.8 hPa | - | - | - | - |
| 1777234301 | 5.56° C | 52% | 1025.8 hPa | - | - | - | - |
| 1777233701 | 5.56° C | 50% | 1025.7 hPa | - | - | - | - |
| 1777231901 | 6.11° C | 47% | 1025.5 hPa | - | - | - | - |
| 1777231300 | 6.67° C | 45% | 1025.4 hPa | - | - | - | - |
| 1777230700 | 6.67° C | 45% | 1025.3 hPa | - | - | - | - |
| 1777227699 | 7.78° C | 39% | 1024.6 hPa | - | - | - | - |
| 1777227099 | 7.78° C | 38% | 1024.5 hPa | - | - | - | - |
| 1777226499 | 8.33° C | 36% | 1024.2 hPa | - | - | - | - |
| 1777225899 | 8.33° C | 34% | 1024 hPa | - | - | - | - |
| 1777224099 | 9.44° C | 33% | 1023.7 hPa | - | - | - | - |
| 1777223499 | 10° C | 32% | 1023.5 hPa | - | - | - | - |
| 1777222899 | 10° C | 34% | 1023.5 hPa | - | - | - | - |
| 1777221098 | 10° C | 33% | 1023.2 hPa | - | - | - | - |
| 1777220498 | 10° C | 33% | 1023.1 hPa | - | - | - | - |
| 1777219898 | 10.56° C | 32% | 1023 hPa | - | - | - | - |
| 1777217497 | 11.11° C | 32% | 1022.7 hPa | - | - | - | - |
| 1777216897 | 11.67° C | 30% | 1022.7 hPa | - | - | - | - |
| 1777216297 | 12.78° C | 30% | 1022.6 hPa | - | - | - | - |
| 1777215697 | 11.11° C | 32% | 1022.5 hPa | - | - | - | - |
| 1777213896 | 11.67° C | 32% | 1022.3 hPa | - | - | - | - |
* Rain since midnight (hover to see other rain measurements)
** Current wind speed in m/s (hover to see current wind gust speed)